Portada
METAR-TAF:

METAR-TAF

Aeroports :

La Paz, Mèxic

latitud: 24-04N, longitud: 110-22W, altitud: 21 m

Observació

L'informe es va fer fa 54 minuts, a les 18:40 UTC
Vent 13 kt del Nord
Temperatura 27°C
Humitat 32%
Pressió 1014 hPa
Visibilitat: 16.1 km
Escasses núvols a una alçada de 20000 ft

METAR: MMLP 151840Z 35013KT 10SM FEW200 27/09 A2995 RMK 8/008

Hora: 13:34 (19:34 UTC)

Pronòstic

L'informe es va fer fa 2 hores i 40 minuts, a les 16:54 UTC
Pronòstic vàlid del 15 a les 18 UTC al 16 a les 18 UTC
Vent 12 kt del Nord/Nord-Oest
Visibilitat: 10 km
Núvols disperses a una alçada de 20000 ft
A partir de les 16 a les 0300 UTC
Vent 10 kt del Sud/Sud-Oest
Visibilitat: 10 km
Núvols disperses a una alçada de 20000 ft

TAF: MMLP 151654Z 1518/1618 34012KT P6SM SCT200 FM160300 20010KT P6SM SCT200

Observacions i pronòstics meteorològics de més de 4000 aeroports (METAR i TAF).

Les estacions disponibles són els punts grocs i vermells al mapa.

Posi el ratolí al punt desitjat per veure el nom de l'estació.

Feu clic per veure les observacions i els pronòstics meteorològics.

Per canviar el mapa: feu clic els botons verds amb una creu de color negre per apropar; al botó verd amb un guió per allunyar la imatge; o en les fletxes verdes per a mapes adjacents.


METAR-TAF: